Airfield :
LOGIN :

Register | Disclaimer

   EN    FR    IT 

 










Legend :    VFR   Marginal VFR   IFR   Intensive IFR   Very Intensive IFR
Visi :
Ceiling :
>= 8 km
>= 3000ft
5 to 8 km
1000 to 3000 ft
1500m to 5 km
500 to 1000 ft
800 to 1500m
200 to 500 ft
< 800m
< 200 ft
Symbols :   Thunderstorms  Fog  Heavy snow  Heavy precipitations  Wind > 20 kt
SIGMETs :     Misc.  Thunderstorms  Icing  Turbulence  Mountain Waves  Volcanic Ashes






- Airport Elevation : 42 ft
- IATA code : KGD


UMKK - Khrabrava - Kaliningrad

CURRENT METAR :
  • 222230Z 15006MPS 9999 SCT018 02/M02 Q1021 R06/CLRD95 NOSIG RMK QFE765/1020

EXPIRED METARs :
  • 222200Z 15007MPS 9999 SCT017 01/M02 Q1022 R06/CLRD95 NOSIG RMK QFE765/1020
  • 222130Z 14007G12MPS 9999 SCT016 01/M02 Q1022 R06/95D NOSIG RMK QFE765/1020
  • 222100Z 14005MPS 9999 FEW020 01/M02 Q1022 R06/CLRD95 NOSIG RMK QFE765/1020
  • 222030Z 14006MPS 9999 FEW020 01/M02 Q1022 R06/CLRD95 NOSIG RMK QFE765/1020
  • 222000Z 14006MPS 9999 SCT021 01/M02 Q1022 R06/CLRD95 NOSIG RMK QFE765/1020

TAF TAF UMKK
Valid from the 22 at 21:00 until the 23 at 21:00 UTC


221956Z 2221/2321 13005G10MPS 9999 BKN015
TEMPO 2318/2321 BKN011



MET'MAP, your aeronautical weather chart ! - Copyright ORBIFLY December 2007 - Disclaimer

ORBIFLY MET'MAP TEAM :

Programming & Development : Alexandra Zaïnal
Concept & Development : Baudouin d'Aumeries
Co-Development & Prog : Marc-Olivier Méhu
Technical & hardware support : Manuel Goepfert

Contact : metmap@orbifly.com




SOURCES & CREDITS :

   NOAA